Time;durP1;ratioP1;P1;durP2;ratioP2;P2;SDS_P1;SDS_P2;PMS_P1;PMS_P2;Temp;Humidity;BMP_temperature;BMP_pressure;BME280_temperature;BME280_humidity;BME280_pressure;Samples;Min_cycle;Max_cycle;Signal;HPM_P1;HPM_P2
2021/08/28 00:01:18;;;;;;;2.07;1.87;;;;;;;;;;5104645;28;20447;-73
2021/08/28 00:03:45;;;;;;;2.17;1.57;;;;;;;;;;5092789;28;20463;-76
2021/08/28 00:06:14;;;;;;;2.23;2.03;;;;;;;;;;5092562;28;20451;-76
2021/08/28 00:08:41;;;;;;;2.40;1.80;;;;;;;;;;5093079;28;20953;-75
2021/08/28 00:11:08;;;;;;;1.97;1.77;;;;;;;;;;5100621;28;20455;-75
2021/08/28 00:13:35;;;;;;;5.53;2.30;;;;;;;;;;5091705;28;20543;-76
2021/08/28 00:16:03;;;;;;;3.10;2.80;;;;;;;;;;5092250;28;20564;-77
2021/08/28 00:18:30;;;;;;;2.17;1.90;;;;;;;;;;5092084;28;20455;-76
2021/08/28 00:20:57;;;;;;;4.93;2.87;;;;;;;;;;5099610;28;20475;-75
2021/08/28 00:23:26;;;;;;;3.13;2.10;;;;;;;;;;5093043;28;20815;-75
2021/08/28 00:25:54;;;;;;;1.90;1.77;;;;;;;;;;5094548;28;20449;-74
2021/08/28 00:28:21;;;;;;;2.83;2.10;;;;;;;;;;5105800;28;20444;-75
2021/08/28 00:30:48;;;;;;;2.27;2.07;;;;;;;;;;5101428;28;20540;-74
2021/08/28 00:33:16;;;;;;;2.10;1.80;;;;;;;;;;5101278;28;20512;-76
2021/08/28 00:35:43;;;;;;;4.67;2.70;;;;;;;;;;5092471;28;20479;-74
2021/08/28 00:38:11;;;;;;;5.97;2.97;;;;;;;;;;5091997;28;20441;-75
2021/08/28 00:40:40;;;;;;;3.90;1.90;;;;;;;;;;5100370;28;20551;-76
2021/08/28 00:43:07;;;;;;;2.93;2.00;;;;;;;;;;5111957;28;20571;-75
2021/08/28 00:45:34;;;;;;;2.13;1.73;;;;;;;;;;5111797;28;20811;-75
2021/08/28 00:48:02;;;;;;;2.97;1.90;;;;;;;;;;5112025;28;20443;-76
2021/08/28 00:50:30;;;;;;;3.33;1.90;;;;;;;;;;5109076;28;20447;-72
2021/08/28 00:52:58;;;;;;;5.90;1.97;;;;;;;;;;5106566;28;20443;-76
2021/08/28 00:55:25;;;;;;;2.93;2.07;;;;;;;;;;5092482;28;20468;-76
2021/08/28 00:57:54;;;;;;;2.13;1.90;;;;;;;;;;5091090;28;20453;-74
2021/08/28 01:00:21;;;;;;;2.90;2.50;;;;;;;;;;5095675;28;20439;-74
2021/08/28 01:02:50;;;;;;;2.17;1.97;;;;;;;;;;5091905;28;20437;-76
2021/08/28 01:05:19;;;;;;;3.80;1.90;;;;;;;;;;5090557;28;20453;-76
2021/08/28 01:07:50;;;;;;;3.00;2.23;;;;;;;;;;5092042;28;20436;-75
2021/08/28 01:10:17;;;;;;;2.93;2.73;;;;;;;;;;5091572;28;20444;-77
2021/08/28 01:12:46;;;;;;;2.23;2.00;;;;;;;;;;5092010;28;20455;-77
2021/08/28 01:15:18;;;;;;;2.40;1.57;;;;;;;;;;5091208;28;20483;-74
2021/08/28 01:17:49;;;;;;;2.20;2.00;;;;;;;;;;5103046;28;20513;-75
2021/08/28 01:20:20;;;;;;;3.07;2.17;;;;;;;;;;5110418;28;20756;-76
2021/08/28 01:22:49;;;;;;;3.40;1.87;;;;;;;;;;5090525;28;20441;-74
2021/08/28 01:25:17;;;;;;;3.87;2.00;;;;;;;;;;5090968;28;20440;-76
2021/08/28 01:27:46;;;;;;;3.50;2.20;;;;;;;;;;5090721;28;20519;-75
2021/08/28 01:30:15;;;;;;;1.87;1.70;;;;;;;;;;5105037;28;20446;-75
2021/08/28 01:32:44;;;;;;;3.73;2.10;;;;;;;;;;5106876;28;20444;-76
2021/08/28 01:35:12;;;;;;;3.07;2.20;;;;;;;;;;5111101;28;20483;-76
2021/08/28 01:37:41;;;;;;;3.03;2.00;;;;;;;;;;5110973;28;20444;-74
2021/08/28 01:40:10;;;;;;;2.90;1.93;;;;;;;;;;5102758;28;20440;-76
2021/08/28 01:42:38;;;;;;;2.93;1.83;;;;;;;;;;5099811;28;20487;-75
2021/08/28 01:45:07;;;;;;;4.30;2.47;;;;;;;;;;5110778;28;20475;-77
2021/08/28 01:47:35;;;;;;;3.97;1.90;;;;;;;;;;5111062;28;20458;-76
2021/08/28 01:50:03;;;;;;;2.83;2.30;;;;;;;;;;5108934;28;20451;-76
2021/08/28 01:52:30;;;;;;;3.80;1.83;;;;;;;;;;5102197;28;20885;-76
2021/08/28 01:54:57;;;;;;;2.43;2.23;;;;;;;;;;5090562;28;20480;-76
2021/08/28 01:57:24;;;;;;;9.53;1.87;;;;;;;;;;5090778;28;20527;-75
2021/08/28 01:59:52;;;;;;;2.30;2.10;;;;;;;;;;5090223;28;20440;-77
2021/08/28 02:02:19;;;;;;;2.90;2.10;;;;;;;;;;5102342;28;20442;-75
2021/08/28 02:04:48;;;;;;;3.87;2.83;;;;;;;;;;5099630;28;20472;-76
2021/08/28 02:07:18;;;;;;;2.83;1.90;;;;;;;;;;5090651;28;20509;-76
2021/08/28 02:09:47;;;;;;;3.40;2.37;;;;;;;;;;5103433;28;20444;-77
2021/08/28 02:12:19;;;;;;;3.10;2.23;;;;;;;;;;5098487;28;20457;-77
2021/08/28 02:14:52;;;;;;;4.10;2.80;;;;;;;;;;5089937;28;20480;-76
2021/08/28 02:17:19;;;;;;;4.50;2.50;;;;;;;;;;5104264;28;20443;-77
2021/08/28 02:19:49;;;;;;;3.20;2.30;;;;;;;;;;5103311;28;20459;-77
2021/08/28 02:22:18;;;;;;;4.97;3.27;;;;;;;;;;5105876;28;20454;-75
2021/08/28 02:24:47;;;;;;;3.80;3.03;;;;;;;;;;5094795;28;20793;-76
2021/08/28 02:27:18;;;;;;;6.53;3.73;;;;;;;;;;5094683;28;20455;-76
2021/08/28 02:29:48;;;;;;;3.30;2.57;;;;;;;;;;5094274;28;20838;-76
2021/08/28 02:32:17;;;;;;;3.73;3.27;;;;;;;;;;5095568;28;20818;-77
2021/08/28 02:34:44;;;;;;;5.43;3.90;;;;;;;;;;5105116;28;20814;-76
2021/08/28 02:37:13;;;;;;;5.77;3.50;;;;;;;;;;5111119;28;20439;-75
2021/08/28 02:39:42;;;;;;;4.77;2.90;;;;;;;;;;5097130;28;20441;-76
2021/08/28 02:42:10;;;;;;;4.43;3.53;;;;;;;;;;5094987;28;20894;-76
2021/08/28 02:44:39;;;;;;;4.70;3.70;;;;;;;;;;5094956;28;20436;-77
2021/08/28 02:47:07;;;;;;;5.83;4.73;;;;;;;;;;5106329;28;20806;-76
2021/08/28 02:49:35;;;;;;;4.70;4.30;;;;;;;;;;5108442;28;20449;-76
2021/08/28 02:52:04;;;;;;;7.17;5.37;;;;;;;;;;5097324;28;20444;-75
2021/08/28 02:54:33;;;;;;;7.87;4.87;;;;;;;;;;5107080;28;20444;-76
2021/08/28 02:57:00;;;;;;;4.60;4.13;;;;;;;;;;5104810;28;20940;-75
2021/08/28 02:59:29;;;;;;;8.93;4.97;;;;;;;;;;5099027;28;20444;-75
2021/08/28 03:01:56;;;;;;;9.13;4.90;;;;;;;;;;5105069;28;20437;-75
2021/08/28 03:04:25;;;;;;;7.90;5.20;;;;;;;;;;5110324;28;20441;-75
2021/08/28 03:06:52;;;;;;;5.20;4.70;;;;;;;;;;5103656;28;20750;-76
2021/08/28 03:09:19;;;;;;;9.10;6.13;;;;;;;;;;5094784;28;20436;-76
2021/08/28 03:11:48;;;;;;;7.10;5.60;;;;;;;;;;5109247;28;20458;-76
2021/08/28 03:14:17;;;;;;;7.77;6.20;;;;;;;;;;5098562;28;20446;-76
2021/08/28 03:16:52;;;;;;;8.93;6.47;;;;;;;;;;5104361;28;20475;-77
2021/08/28 03:19:20;;;;;;;9.20;7.73;;;;;;;;;;5098344;28;20445;-76
2021/08/28 03:21:48;;;;;;;9.40;8.50;;;;;;;;;;5099353;28;20440;-77
2021/08/28 03:24:16;;;;;;;10.00;8.30;;;;;;;;;;5111584;28;20860;-77
2021/08/28 03:26:43;;;;;;;11.33;8.13;;;;;;;;;;5104816;28;20790;-75
2021/08/28 03:29:12;;;;;;;14.40;9.50;;;;;;;;;;5092650;28;20453;-75
2021/08/28 03:31:39;;;;;;;9.60;8.60;;;;;;;;;;5104961;28;20461;-74
2021/08/28 03:34:06;;;;;;;10.27;9.23;;;;;;;;;;5109166;28;20991;-77
2021/08/28 03:36:33;;;;;;;10.07;8.10;;;;;;;;;;5105329;28;20482;-75
2021/08/28 03:39:01;;;;;;;11.03;8.57;;;;;;;;;;5104298;28;20446;-77
2021/08/28 03:41:28;;;;;;;12.77;11.07;;;;;;;;;;5098056;28;20452;-77
2021/08/28 03:43:55;;;;;;;14.00;9.97;;;;;;;;;;5101367;28;20475;-77
2021/08/28 03:46:24;;;;;;;11.07;9.10;;;;;;;;;;5099062;28;21139;-76
2021/08/28 03:48:51;;;;;;;10.90;9.80;;;;;;;;;;5096396;28;20459;-76
2021/08/28 03:51:18;;;;;;;12.27;10.20;;;;;;;;;;5106372;28;20535;-74
2021/08/28 03:53:46;;;;;;;10.73;9.63;;;;;;;;;;5095413;28;20527;-76
2021/08/28 03:56:13;;;;;;;12.80;9.40;;;;;;;;;;5108453;28;20988;-76
2021/08/28 03:58:40;;;;;;;12.00;9.30;;;;;;;;;;5100682;28;20440;-77
2021/08/28 04:01:07;;;;;;;11.30;10.10;;;;;;;;;;5100952;28;20820;-76
2021/08/28 04:03:35;;;;;;;14.33;9.27;;;;;;;;;;5110384;28;20909;-75
2021/08/28 04:06:03;;;;;;;17.60;9.60;;;;;;;;;;5109346;28;20468;-77
2021/08/28 04:08:30;;;;;;;11.97;10.73;;;;;;;;;;5094088;28;20528;-76
2021/08/28 04:10:57;;;;;;;12.40;11.20;;;;;;;;;;5103193;28;20450;-74
2021/08/28 04:13:24;;;;;;;13.37;10.60;;;;;;;;;;5099418;28;20456;-76
2021/08/28 04:15:51;;;;;;;11.93;10.33;;;;;;;;;;5096408;28;21006;-77
2021/08/28 04:18:19;;;;;;;15.33;11.10;;;;;;;;;;5094850;28;20447;-75
2021/08/28 04:20:47;;;;;;;16.23;11.47;;;;;;;;;;5096050;28;20992;-77
2021/08/28 04:23:14;;;;;;;12.63;11.00;;;;;;;;;;5091791;28;20983;-77
2021/08/28 04:25:42;;;;;;;18.90;12.47;;;;;;;;;;5098200;28;20446;-76
2021/08/28 04:28:09;;;;;;;14.93;11.27;;;;;;;;;;5107715;28;20475;-77
2021/08/28 04:30:38;;;;;;;14.30;11.27;;;;;;;;;;5099633;28;20523;-77
2021/08/28 04:33:05;;;;;;;12.40;11.10;;;;;;;;;;5110668;28;20487;-75
2021/08/28 04:35:32;;;;;;;13.80;11.10;;;;;;;;;;5105044;28;20435;-77
2021/08/28 04:38:01;;;;;;;16.40;12.43;;;;;;;;;;5097449;28;20475;-76
2021/08/28 04:40:28;;;;;;;15.43;12.30;;;;;;;;;;5105003;28;20436;-77
2021/08/28 04:42:55;;;;;;;13.80;10.53;;;;;;;;;;5101318;28;20460;-77
2021/08/28 04:45:22;;;;;;;12.47;11.17;;;;;;;;;;5097498;28;20448;-76
2021/08/28 04:47:50;;;;;;;12.30;10.70;;;;;;;;;;5107816;28;20443;-76
2021/08/28 04:50:17;;;;;;;14.07;11.83;;;;;;;;;;5106110;28;20437;-77
2021/08/28 04:52:44;;;;;;;11.63;10.43;;;;;;;;;;5092268;28;20451;-77
2021/08/28 04:55:12;;;;;;;14.40;10.17;;;;;;;;;;5092946;28;20449;-77
2021/08/28 04:57:39;;;;;;;13.47;11.07;;;;;;;;;;5107350;28;20489;-76
2021/08/28 05:00:07;;;;;;;19.17;11.57;;;;;;;;;;5095169;28;20440;-76
2021/08/28 05:02:34;;;;;;;14.13;11.30;;;;;;;;;;5103469;28;20445;-72
2021/08/28 05:05:02;;;;;;;17.63;11.87;;;;;;;;;;5101099;28;21270;-77
2021/08/28 05:07:30;;;;;;;15.50;12.33;;;;;;;;;;5096393;28;20452;-76
2021/08/28 05:09:58;;;;;;;14.63;12.40;;;;;;;;;;5102162;28;20969;-76
2021/08/28 05:12:27;;;;;;;15.03;13.50;;;;;;;;;;5104665;28;20534;-75
2021/08/28 05:14:54;;;;;;;14.20;10.30;;;;;;;;;;5101089;28;20432;-76
2021/08/28 05:17:21;;;;;;;16.23;12.47;;;;;;;;;;5097217;28;20825;-77
2021/08/28 05:19:48;;;;;;;14.70;11.37;;;;;;;;;;5107066;28;20444;-76
2021/08/28 05:22:15;;;;;;;13.37;11.20;;;;;;;;;;5094440;28;20455;-76
2021/08/28 05:24:42;;;;;;;11.77;10.60;;;;;;;;;;5099011;28;20444;-75
2021/08/28 05:27:10;;;;;;;12.67;9.80;;;;;;;;;;5105051;27;20922;-74
2021/08/28 05:29:38;;;;;;;14.30;11.50;;;;;;;;;;5117500;27;20533;-75
2021/08/28 05:32:05;;;;;;;12.50;10.93;;;;;;;;;;5107743;28;20439;-75
2021/08/28 05:34:32;;;;;;;12.33;10.70;;;;;;;;;;5091135;28;20451;-75
2021/08/28 05:37:00;;;;;;;11.33;10.13;;;;;;;;;;5090769;28;20515;-77
2021/08/28 05:39:27;;;;;;;12.10;10.90;;;;;;;;;;5091219;28;20804;-77
2021/08/28 05:41:54;;;;;;;12.30;10.40;;;;;;;;;;5090405;28;20447;-75
2021/08/28 05:44:21;;;;;;;11.47;10.20;;;;;;;;;;5099810;27;20437;-76
2021/08/28 05:46:50;;;;;;;10.67;9.57;;;;;;;;;;5108296;27;20802;-77
2021/08/28 05:49:17;;;;;;;11.53;9.23;;;;;;;;;;5106803;28;20805;-78
2021/08/28 05:51:44;;;;;;;11.90;10.43;;;;;;;;;;5102871;28;20921;-79
2021/08/28 05:54:11;;;;;;;13.37;10.33;;;;;;;;;;5090983;28;20447;-79
2021/08/28 05:56:38;;;;;;;11.43;10.23;;;;;;;;;;5101755;28;20848;-75
2021/08/28 05:59:05;;;;;;;11.87;10.17;;;;;;;;;;5093979;28;20527;-77
2021/08/28 06:01:32;;;;;;;15.63;13.37;;;;;;;;;;5104495;28;20463;-77
2021/08/28 06:04:01;;;;;;;10.97;8.93;;;;;;;;;;5098799;28;20444;-76
2021/08/28 06:06:28;;;;;;;12.37;9.27;;;;;;;;;;5099034;28;20447;-76
2021/08/28 06:08:55;;;;;;;10.33;9.20;;;;;;;;;;5090421;28;20455;-77
2021/08/28 06:11:25;;;;;;;12.37;10.10;;;;;;;;;;5109931;28;20543;-76
2021/08/28 06:13:54;;;;;;;10.10;8.97;;;;;;;;;;5110511;28;20460;-78
2021/08/28 06:16:21;;;;;;;9.60;8.67;;;;;;;;;;5111070;28;20840;-77
2021/08/28 06:18:48;;;;;;;10.87;9.77;;;;;;;;;;5101892;28;20435;-77
2021/08/28 06:21:19;;;;;;;9.40;8.43;;;;;;;;;;5097879;28;20458;-79
2021/08/28 06:23:46;;;;;;;12.00;10.73;;;;;;;;;;5109915;28;20479;-79
2021/08/28 06:26:13;;;;;;;10.57;9.37;;;;;;;;;;5104899;28;20464;-78
2021/08/28 06:28:40;;;;;;;9.10;8.20;;;;;;;;;;5090084;28;20440;-73
2021/08/28 06:31:07;;;;;;;13.40;12.03;;;;;;;;;;5092646;28;20451;-75
2021/08/28 06:33:35;;;;;;;10.10;8.87;;;;;;;;;;5103341;28;20439;-75
2021/08/28 06:36:02;;;;;;;11.50;8.70;;;;;;;;;;5100543;28;20451;-75
2021/08/28 06:38:31;;;;;;;9.07;8.07;;;;;;;;;;5110948;28;20874;-75
2021/08/28 06:40:59;;;;;;;11.20;8.20;;;;;;;;;;5092428;28;20444;-74
2021/08/28 06:43:26;;;;;;;7.87;7.03;;;;;;;;;;5090191;28;20479;-75
2021/08/28 06:45:53;;;;;;;10.83;8.10;;;;;;;;;;5090070;28;20471;-76
2021/08/28 06:48:21;;;;;;;8.87;8.07;;;;;;;;;;5093952;28;20887;-75
2021/08/28 06:50:48;;;;;;;15.33;8.80;;;;;;;;;;5110295;28;20446;-76
2021/08/28 06:53:15;;;;;;;8.90;7.97;;;;;;;;;;5107501;28;20524;-75
2021/08/28 06:55:43;;;;;;;10.17;8.50;;;;;;;;;;5105329;28;20438;-74
2021/08/28 06:58:10;;;;;;;9.57;8.23;;;;;;;;;;5099817;28;20479;-75
2021/08/28 07:00:38;;;;;;;10.60;8.00;;;;;;;;;;5110134;28;20444;-73
2021/08/28 07:03:05;;;;;;;8.13;7.33;;;;;;;;;;5103244;27;21377;-73
2021/08/28 07:05:32;;;;;;;7.97;7.10;;;;;;;;;;5120370;27;20427;-74
2021/08/28 07:07:59;;;;;;;8.50;7.50;;;;;;;;;;5109308;28;20451;-76
2021/08/28 07:10:26;;;;;;;11.43;7.47;;;;;;;;;;5115531;28;20526;-77
2021/08/28 07:12:55;;;;;;;8.60;7.80;;;;;;;;;;5125520;27;20438;-77
2021/08/28 07:15:22;;;;;;;8.20;6.33;;;;;;;;;;5121461;27;20458;-75
2021/08/28 07:17:49;;;;;;;8.17;6.53;;;;;;;;;;5114161;28;21008;-75
2021/08/28 07:20:17;;;;;;;6.70;6.07;;;;;;;;;;5119576;28;20440;-76
2021/08/28 07:22:44;;;;;;;6.83;6.10;;;;;;;;;;5116446;28;20436;-75
2021/08/28 07:25:12;;;;;;;7.10;5.80;;;;;;;;;;5130689;27;20873;-79
2021/08/28 07:27:39;;;;;;;5.50;5.00;;;;;;;;;;5102207;27;20448;-73
2021/08/28 07:30:08;;;;;;;6.23;5.20;;;;;;;;;;5114299;28;20436;-76
2021/08/28 07:32:35;;;;;;;5.73;5.13;;;;;;;;;;5114000;28;20531;-77
2021/08/28 07:35:03;;;;;;;5.67;4.60;;;;;;;;;;5107455;27;20444;-75
2021/08/28 07:37:30;;;;;;;4.67;4.27;;;;;;;;;;5109143;28;20653;-75
2021/08/28 07:39:57;;;;;;;8.30;4.90;;;;;;;;;;5113308;28;20446;-75
2021/08/28 07:42:24;;;;;;;4.57;4.17;;;;;;;;;;5125290;27;20542;-74
2021/08/28 07:44:51;;;;;;;5.70;4.80;;;;;;;;;;5113576;27;21005;-78
2021/08/28 07:47:20;;;;;;;5.40;4.50;;;;;;;;;;5112683;28;20444;-72
2021/08/28 07:49:47;;;;;;;5.23;4.80;;;;;;;;;;5113978;27;20434;-76
2021/08/28 07:52:18;;;;;;;4.70;4.03;;;;;;;;;;5132391;27;20457;-75
2021/08/28 07:54:45;;;;;;;4.20;3.80;;;;;;;;;;5133713;27;20471;-74
2021/08/28 07:57:12;;;;;;;3.63;3.33;;;;;;;;;;5133918;27;20470;-74
2021/08/28 07:59:39;;;;;;;3.43;3.13;;;;;;;;;;5132552;27;20443;-75
2021/08/28 08:02:07;;;;;;;3.13;2.87;;;;;;;;;;5123293;27;20939;-77
2021/08/28 08:04:35;;;;;;;3.63;3.20;;;;;;;;;;5108553;28;20900;-73
2021/08/28 08:07:02;;;;;;;4.63;3.30;;;;;;;;;;5112732;28;20440;-75
2021/08/28 08:09:30;;;;;;;4.57;3.10;;;;;;;;;;5116447;27;20527;-76
2021/08/28 08:11:57;;;;;;;4.37;2.70;;;;;;;;;;5112886;28;20544;-76
2021/08/28 08:14:24;;;;;;;3.10;2.40;;;;;;;;;;5113008;28;20944;-77
2021/08/28 08:16:51;;;;;;;3.50;3.20;;;;;;;;;;5113095;27;20467;-76
2021/08/28 08:19:18;;;;;;;5.50;3.20;;;;;;;;;;5113344;28;20452;-72
2021/08/28 08:21:47;;;;;;;3.70;2.73;;;;;;;;;;5114108;27;20805;-73
2021/08/28 08:24:14;;;;;;;5.43;2.63;;;;;;;;;;5112620;28;20497;-73
2021/08/28 08:26:41;;;;;;;2.90;2.60;;;;;;;;;;5112368;28;20444;-72
2021/08/28 08:29:08;;;;;;;3.03;2.37;;;;;;;;;;5115045;28;20443;-73
2021/08/28 08:31:35;;;;;;;2.43;2.23;;;;;;;;;;5105235;28;20457;-75
2021/08/28 08:34:03;;;;;;;3.97;2.67;;;;;;;;;;5091999;28;20444;-75
2021/08/28 08:36:30;;;;;;;2.50;2.30;;;;;;;;;;5092401;28;20445;-75
2021/08/28 08:38:58;;;;;;;3.33;2.50;;;;;;;;;;5091667;28;20447;-74
2021/08/28 08:41:26;;;;;;;2.50;2.30;;;;;;;;;;5092116;28;20939;-74
2021/08/28 08:43:53;;;;;;;4.20;3.33;;;;;;;;;;5091235;28;20472;-75
2021/08/28 08:46:21;;;;;;;3.43;2.67;;;;;;;;;;5091847;28;20441;-75
2021/08/28 08:48:49;;;;;;;3.23;2.80;;;;;;;;;;5091665;28;20448;-75
2021/08/28 08:51:17;;;;;;;2.67;2.47;;;;;;;;;;5091988;28;20539;-76
2021/08/28 08:53:45;;;;;;;3.67;2.80;;;;;;;;;;5091522;28;20527;-75
2021/08/28 08:56:14;;;;;;;2.73;2.40;;;;;;;;;;5091778;28;20440;-76
2021/08/28 08:58:41;;;;;;;5.53;2.63;;;;;;;;;;5091004;28;20480;-76
2021/08/28 09:01:08;;;;;;;3.17;2.87;;;;;;;;;;5091724;28;20440;-76
2021/08/28 09:03:35;;;;;;;2.90;2.70;;;;;;;;;;5091561;28;20543;-76
2021/08/28 09:06:03;;;;;;;2.77;2.57;;;;;;;;;;5091071;28;20524;-75
2021/08/28 09:08:30;;;;;;;2.60;2.40;;;;;;;;;;5091586;28;20539;-76
2021/08/28 09:10:58;;;;;;;3.40;2.07;;;;;;;;;;5091075;28;20445;-76
2021/08/28 09:13:26;;;;;;;2.23;2.00;;;;;;;;;;5091725;28;20459;-76
2021/08/28 09:15:55;;;;;;;3.83;1.97;;;;;;;;;;5093229;28;20802;-73
2021/08/28 09:18:22;;;;;;;1.70;1.57;;;;;;;;;;5102346;28;20588;-74
2021/08/28 09:20:50;;;;;;;2.40;2.03;;;;;;;;;;5105917;28;20441;-75
2021/08/28 09:23:18;;;;;;;2.03;1.50;;;;;;;;;;5101289;28;20854;-74
2021/08/28 09:25:48;;;;;;;3.83;2.20;;;;;;;;;;5105557;28;20890;-79
2021/08/28 09:28:15;;;;;;;1.70;1.60;;;;;;;;;;5099840;28;20539;-78
2021/08/28 09:30:46;;;;;;;2.23;2.03;;;;;;;;;;5091112;28;20822;-76
2021/08/28 09:33:14;;;;;;;2.13;1.93;;;;;;;;;;5114202;27;20438;-79
2021/08/28 09:35:42;;;;;;;3.33;1.97;;;;;;;;;;5126264;27;20932;-79
2021/08/28 09:38:10;;;;;;;2.13;1.93;;;;;;;;;;5111295;28;20482;-79
2021/08/28 09:40:38;;;;;;;1.70;1.60;;;;;;;;;;5101976;28;21028;-76
2021/08/28 09:43:06;;;;;;;2.40;2.20;;;;;;;;;;5091257;28;20574;-75
2021/08/28 09:45:36;;;;;;;4.40;3.37;;;;;;;;;;5100394;28;20871;-77
2021/08/28 09:48:07;;;;;;;2.90;2.50;;;;;;;;;;5093671;28;20455;-79
2021/08/28 09:50:34;;;;;;;2.40;2.00;;;;;;;;;;5092084;28;20447;-76
2021/08/28 09:53:02;;;;;;;6.50;1.70;;;;;;;;;;5090573;28;20436;-75
2021/08/28 09:55:31;;;;;;;2.37;1.90;;;;;;;;;;5091049;28;20445;-76
2021/08/28 09:57:58;;;;;;;2.23;2.03;;;;;;;;;;5090386;28;20713;-74
2021/08/28 10:00:26;;;;;;;2.93;1.70;;;;;;;;;;5090899;28;20450;-76
2021/08/28 10:02:57;;;;;;;2.80;2.10;;;;;;;;;;5090453;28;20518;-74
2021/08/28 10:05:27;;;;;;;1.60;1.47;;;;;;;;;;5090994;28;20536;-75
2021/08/28 10:07:56;;;;;;;1.63;1.53;;;;;;;;;;5090302;28;20455;-74
2021/08/28 10:10:23;;;;;;;1.80;1.70;;;;;;;;;;5090948;28;20440;-75
2021/08/28 10:12:51;;;;;;;2.17;1.80;;;;;;;;;;5090474;28;20459;-76
2021/08/28 10:15:19;;;;;;;1.70;1.60;;;;;;;;;;5090625;28;20442;-76
2021/08/28 10:17:47;;;;;;;3.00;2.60;;;;;;;;;;5090228;28;20479;-75
2021/08/28 10:20:14;;;;;;;1.73;1.63;;;;;;;;;;5090765;28;20532;-75
2021/08/28 10:22:44;;;;;;;3.97;1.90;;;;;;;;;;5090269;28;20442;-76
2021/08/28 10:25:14;;;;;;;2.40;1.90;;;26.20;1.00;;;;;;5090818;28;20808;-76
2021/08/28 10:27:42;;;;;;;2.03;1.80;;;16.40;1.00;;;;;;5090289;28;20450;-75
2021/08/28 10:30:11;;;;;;;3.63;2.20;;;16.20;1.00;;;;;;5090714;28;20519;-76
2021/08/28 10:32:39;;;;;;;3.33;2.10;;;16.20;99.90;;;;;;5090525;28;21007;-73
2021/08/28 10:35:06;;;;;;;3.67;2.20;;;16.00;99.90;;;;;;5090594;28;21009;-76
2021/08/28 10:37:35;;;;;;;3.73;2.10;;;16.00;99.90;;;;;;5092037;28;20475;-76
2021/08/28 10:40:08;;;;;;;2.10;1.90;;;16.10;1.00;;;;;;5094113;28;20432;-75
2021/08/28 10:42:36;;;;;;;2.90;1.90;;;16.10;99.90;;;;;;5094333;28;20580;-76
2021/08/28 10:45:04;;;;;;;2.03;1.73;;;16.40;99.90;;;;;;5094193;28;20971;-76
2021/08/28 10:47:32;;;;;;;1.40;1.30;;;16.50;99.90;;;;;;5094486;28;20440;-76
2021/08/28 10:50:04;;;;;;;1.80;1.47;;;16.60;1.00;;;;;;5094019;28;20456;-75
2021/08/28 10:52:34;;;;;;;1.60;1.50;;;16.40;99.90;;;;;;5094429;28;20471;-76
2021/08/28 10:55:07;;;;;;;1.60;1.50;;;16.70;1.00;;;;;;5093960;28;20459;-76
2021/08/28 10:57:35;;;;;;;1.73;1.63;;;17.00;99.90;;;;;;5094414;28;20882;-76
2021/08/28 11:00:05;;;;;;;1.60;1.50;;;17.30;1.00;;;;;;5093864;28;20455;-75
2021/08/28 11:02:56;;;;;;;2.03;1.30;;;17.60;1.00;;;;;;5094156;28;20486;-76
2021/08/28 11:05:24;;;;;;;1.53;1.33;;;17.20;1.00;;;;;;5094016;28;20528;-75
2021/08/28 11:07:51;;;;;;;2.37;2.17;;;17.20;1.00;;;;;;5093567;28;20449;-76
2021/08/28 11:10:22;;;;;;;2.73;1.30;;;17.30;1.00;;;;;;5094126;28;20436;-74
2021/08/28 11:12:55;;;;;;;1.90;1.40;;;17.30;99.90;;;;;;5093802;28;20820;-77
2021/08/28 11:15:41;;;;;;;1.33;1.00;;;17.60;99.90;;;;;;5093934;28;20447;-77
2021/08/28 11:18:09;;;;;;;1.00;0.90;;;17.90;99.90;;;;;;5093209;28;20480;-75
2021/08/28 11:20:39;;;;;;;1.07;0.80;;;17.90;99.90;;;;;;5093501;28;20535;-77
2021/08/28 11:23:09;;;;;;;3.00;1.00;;;18.20;38.20;;;;;;5093491;28;20525;-77
2021/08/28 11:25:39;;;;;;;1.13;1.03;;;18.40;1.00;;;;;;5093729;28;20972;-76
2021/08/28 11:28:07;;;;;;;1.07;1.00;;;18.60;1.00;;;;;;5093834;28;20445;-76
2021/08/28 11:30:53;;;;;;;1.57;1.00;;;;;;;;;;5093718;28;20476;-75
2021/08/28 11:33:23;;;;;;;2.07;1.00;;;;;;;;;;5093741;28;20451;-75
2021/08/28 11:35:51;;;;;;;1.20;1.03;;;18.50;1.00;;;;;;5093433;28;20449;-76
2021/08/28 11:38:23;;;;;;;1.13;0.90;;;18.40;1.00;;;;;;5093469;28;20472;-74
2021/08/28 11:41:00;;;;;;;1.33;0.83;;;18.20;1.00;;;;;;5093163;28;20501;-75
2021/08/28 11:43:32;;;;;;;2.50;0.90;;;18.50;1.00;;;;;;5093428;28;21008;-76
2021/08/28 11:46:02;;;;;;;1.20;1.10;;;18.60;1.00;;;;;;5093109;28;20528;-75
2021/08/28 11:48:32;;;;;;;1.23;1.13;;;18.40;1.00;;;;;;5092901;28;20822;-76
2021/08/28 11:50:59;;;;;;;1.43;1.30;;;18.80;1.00;;;;;;5092854;28;20498;-75
2021/08/28 11:53:28;;;;;;;1.73;1.30;;;19.00;1.00;;;;;;5093208;28;20536;-75
2021/08/28 11:56:05;;;;;;;1.37;1.20;;;18.50;1.00;;;;;;5093287;28;20781;-76
2021/08/28 11:58:32;;;;;;;1.27;0.90;;;18.30;1.00;;;;;;5093205;28;20842;-75
2021/08/28 12:00:59;;;;;;;2.17;0.90;;;18.30;1.00;;;;;;5092762;28;20502;-74
2021/08/28 12:03:26;;;;;;;0.80;0.70;;;18.30;1.00;;;;;;5093204;28;20448;-76
2021/08/28 12:05:54;;;;;;;0.87;0.70;;;18.50;1.00;;;;;;5093239;28;20786;-75
2021/08/28 12:08:21;;;;;;;0.80;0.60;;;18.60;1.00;;;;;;5093191;28;20540;-76
2021/08/28 12:10:48;;;;;;;0.77;0.70;;;18.50;1.00;;;;;;5093027;28;20475;-76
2021/08/28 12:13:17;;;;;;;1.93;0.90;;;18.50;1.00;;;;;;5093317;28;20448;-76
2021/08/28 12:15:48;;;;;;;1.07;0.60;;;18.30;1.00;;;;;;5092943;28;20525;-75
2021/08/28 12:18:27;;;;;;;1.17;0.80;;;18.30;1.00;;;;;;5092907;28;20512;-76
2021/08/28 12:20:54;;;;;;;0.80;0.70;;;18.50;1.00;;;;;;5093105;28;20785;-76
2021/08/28 12:23:21;;;;;;;1.50;0.73;;;18.40;1.00;;;;;;5092533;28;20535;-75
2021/08/28 12:25:48;;;;;;;1.00;0.90;;;18.40;1.00;;;;;;5092662;28;20477;-75
2021/08/28 12:28:16;;;;;;;0.83;0.80;;;18.50;1.00;;;;;;5093137;28;20476;-76
2021/08/28 12:30:53;;;;;;;1.57;1.00;;;18.70;1.00;;;;;;5092029;28;20445;-76
2021/08/28 12:33:19;;;;;;;0.90;0.80;;;18.90;1.00;;;;;;5092186;28;20441;-76
2021/08/28 12:35:46;;;;;;;1.70;0.90;;;19.10;99.90;;;;;;5092102;28;20440;-76
2021/08/28 12:38:17;;;;;;;1.13;1.00;;;19.30;99.90;;;;;;5092613;28;20476;-76
2021/08/28 12:40:44;;;;;;;1.53;1.43;;;;;;;;;;5092059;28;20440;-75
2021/08/28 12:43:11;;;;;;;1.97;1.20;;;;;;;;;;5092202;28;20479;-76
2021/08/28 12:45:40;;;;;;;1.00;0.90;;;;;;;;;;5091971;28;20749;-76
2021/08/28 12:48:07;;;;;;;1.60;1.30;;;;;;;;;;5092189;28;20475;-77
2021/08/28 12:50:34;;;;;;;1.23;1.13;;;;;;;;;;5091854;28;20531;-77
2021/08/28 12:53:05;;;;;;;1.97;1.07;;;;;;;;;;5091234;28;20432;-77
2021/08/28 12:55:33;;;;;;;2.67;1.30;;;;;;;;;;5091846;28;20490;-75
2021/08/28 12:58:01;;;;;;;1.73;1.27;;;;;;;;;;5091179;28;20527;-76
2021/08/28 13:00:30;;;;;;;1.17;1.00;;;;;;;;;;5091200;28;20444;-77
2021/08/28 13:02:59;;;;;;;1.40;1.30;;;;;;;;;;5091161;28;20444;-76
2021/08/28 13:05:27;;;;;;;2.00;1.47;;;;;;;;;;5091878;28;20872;-75
2021/08/28 13:07:55;;;;;;;3.87;1.80;;;;;;;;;;5091320;28;20453;-75
2021/08/28 13:10:22;;;;;;;1.60;1.50;;;;;;;;;;5091429;28;20445;-75
2021/08/28 13:12:52;;;;;;;2.73;1.93;;;;;;;;;;5091194;28;20449;-75
2021/08/28 13:15:43;;;;;;;3.10;1.70;;;;;;;;;;5091760;28;20548;-74
2021/08/28 13:18:14;;;;;;;1.80;1.50;;;;;;;;;;5095135;28;20444;-74
2021/08/28 13:20:42;;;;;;;1.40;1.30;;;;;;;;;;5091739;28;20445;-75
2021/08/28 13:23:11;;;;;;;1.47;1.30;;;;;;;;;;5099783;28;20436;-74
2021/08/28 13:25:39;;;;;;;2.47;1.60;;;;;;;;;;5092509;28;20687;-75
2021/08/28 13:28:23;;;;;;;1.60;1.50;;;;;;;;;;5091890;28;20951;-75
2021/08/28 13:30:51;;;;;;;2.10;1.90;;;;;;;;;;5090935;28;20515;-75
2021/08/28 13:33:25;;;;;;;2.30;2.10;;;19.60;99.90;;;;;;5091135;28;20440;-73
2021/08/28 13:35:54;;;;;;;2.10;1.90;;;16.90;99.90;;;;;;5091138;28;20543;-76
2021/08/28 13:38:22;;;;;;;1.90;1.80;;;16.70;99.90;;;;;;5090852;28;20451;-75
2021/08/28 13:40:49;;;;;;;2.93;1.63;;;16.80;99.90;;;;;;5090910;28;20439;-77
2021/08/28 13:43:16;;;;;;;2.10;1.90;;;16.80;99.90;;;;;;5090695;28;20472;-76
2021/08/28 13:45:43;;;;;;;1.97;1.77;;;17.10;99.90;;;;;;5090480;28;20540;-76
2021/08/28 13:48:10;;;;;;;2.60;2.10;;;17.40;1.00;;;;;;5090947;28;20441;-76
2021/08/28 13:50:38;;;;;;;4.33;2.40;;;17.40;1.00;;;;;;5091139;28;20445;-76
2021/08/28 13:53:05;;;;;;;2.20;2.00;;;17.40;1.00;;;;;;5090966;28;20455;-76
2021/08/28 13:55:32;;;;;;;1.97;1.60;;;17.60;99.90;;;;;;5091136;28;20799;-75
2021/08/28 13:57:59;;;;;;;3.77;2.03;;;17.50;99.90;;;;;;5090470;28;20537;-75
2021/08/28 14:00:26;;;;;;;2.10;1.40;;;17.40;99.90;;;;;;5090647;28;21047;-76
2021/08/28 14:02:53;;;;;;;2.63;2.00;;;17.70;99.90;;;;;;5090624;28;20909;-76
2021/08/28 14:05:20;;;;;;;2.23;1.40;;;;;;;;;;5090982;28;20471;-75
2021/08/28 14:07:48;;;;;;;1.40;1.30;;;;;;;;;;5090509;28;20516;-75
2021/08/28 14:10:16;;;;;;;2.97;1.33;;;;;;;;;;5090847;28;20444;-75
2021/08/28 14:12:43;;;;;;;1.60;1.50;;;;;;;;;;5092308;28;20452;-75
2021/08/28 14:15:11;;;;;;;2.17;1.40;;;;;;;;;;5094774;28;20806;-76
2021/08/28 14:17:39;;;;;;;1.70;1.50;;;;;;;;;;5094788;28;20704;-75
2021/08/28 14:20:07;;;;;;;1.80;1.70;;;;;;;;;;5094865;28;20480;-75
2021/08/28 14:22:34;;;;;;;1.43;1.00;;;;;;;;;;5094844;28;20519;-76